Bristol, Tennessee
Current Conditions -  °F | °C
As of 2:15 AM on Monday 22 Dec 2014 (Local Time) from KVJI Reporting Station
Overcast Overcast  
Wind Chill:   Ceiling: 7000
Heat Index:   Visibility: 10mi
Dew Point:   Wind: 8mph
Humidity: 83%   Direction: 80°E
Pressure: 30.09"   Gusts: NA
Location:  36.59°N, 82.22°W
Report Text: KVJI 220715Z AUTO 08007KT 10SM OVC070 05/02 A3009 RMK AO2 T00460020
Loading
Personal Weather Stations






























Interactive Weather Map New forecast layout! Learn more

10-Day Weather Forecast

Advertisements
Track Severe Weather on mobile